sensor_id;sensor_type;location;lat;lon;timestamp;P1;P2;P0
34240;PMS7003;20503;50.200;19.508;2022-07-15T00:03:39;7;7;6
34240;PMS7003;20503;50.200;19.508;2022-07-15T00:08:50;4;4;3
34240;PMS7003;20503;50.200;19.508;2022-07-15T00:14:01;4;4;3
34240;PMS7003;20503;50.200;19.508;2022-07-15T00:19:11;5;5;3
34240;PMS7003;20503;50.200;19.508;2022-07-15T00:24:22;3;3;2
34240;PMS7003;20503;50.200;19.508;2022-07-15T00:29:33;7;6;5
34240;PMS7003;20503;50.200;19.508;2022-07-15T00:34:44;5;5;4
34240;PMS7003;20503;50.200;19.508;2022-07-15T00:39:54;7;3;2
34240;PMS7003;20503;50.200;19.508;2022-07-15T00:45:08;5;2;2
34240;PMS7003;20503;50.200;19.508;2022-07-15T00:50:16;7;4;3
34240;PMS7003;20503;50.200;19.508;2022-07-15T00:55:27;5;5;3
34240;PMS7003;20503;50.200;19.508;2022-07-15T01:00:37;4;4;4
34240;PMS7003;20503;50.200;19.508;2022-07-15T01:05:48;3;3;3
34240;PMS7003;20503;50.200;19.508;2022-07-15T01:10:59;10;5;4
34240;PMS7003;20503;50.200;19.508;2022-07-15T01:16:09;3;3;3
34240;PMS7003;20503;50.200;19.508;2022-07-15T01:21:20;7;6;4
34240;PMS7003;20503;50.200;19.508;2022-07-15T01:26:31;6;6;5
34240;PMS7003;20503;50.200;19.508;2022-07-15T01:31:42;5;5;4
34240;PMS7003;20503;50.200;19.508;2022-07-15T01:36:52;5;5;3
34240;PMS7003;20503;50.200;19.508;2022-07-15T01:42:03;7;6;5
34240;PMS7003;20503;50.200;19.508;2022-07-15T01:47:14;5;4;3
34240;PMS7003;20503;50.200;19.508;2022-07-15T01:52:25;8;5;4
34240;PMS7003;20503;50.200;19.508;2022-07-15T01:57:35;13;7;6
34240;PMS7003;20503;50.200;19.508;2022-07-15T02:02:46;8;6;5
34240;PMS7003;20503;50.200;19.508;2022-07-15T02:07:57;10;10;8
34240;PMS7003;20503;50.200;19.508;2022-07-15T02:13:08;12;10;9
34240;PMS7003;20503;50.200;19.508;2022-07-15T02:18:18;13;9;8
34240;PMS7003;20503;50.200;19.508;2022-07-15T02:23:29;5;5;4
34240;PMS7003;20503;50.200;19.508;2022-07-15T02:28:40;7;5;3
34240;PMS7003;20503;50.200;19.508;2022-07-15T02:33:51;10;10;8
34240;PMS7003;20503;50.200;19.508;2022-07-15T02:39:02;8;8;5
34240;PMS7003;20503;50.200;19.508;2022-07-15T02:44:12;15;11;8
34240;PMS7003;20503;50.200;19.508;2022-07-15T02:49:23;13;9;7
34240;PMS7003;20503;50.200;19.508;2022-07-15T02:54:33;23;15;10
34240;PMS7003;20503;50.200;19.508;2022-07-15T02:59:44;7;7;4
34240;PMS7003;20503;50.200;19.508;2022-07-15T03:04:55;8;6;2
34240;PMS7003;20503;50.200;19.508;2022-07-15T03:10:06;13;7;6
34240;PMS7003;20503;50.200;19.508;2022-07-15T03:15:16;9;7;6
34240;PMS7003;20503;50.200;19.508;2022-07-15T03:20:27;12;8;6
34240;PMS7003;20503;50.200;19.508;2022-07-15T03:25:38;13;10;6
34240;PMS7003;20503;50.200;19.508;2022-07-15T03:30:49;9;6;5
34240;PMS7003;20503;50.200;19.508;2022-07-15T03:35:59;7;6;4
34240;PMS7003;20503;50.200;19.508;2022-07-15T03:41:10;10;7;6
34240;PMS7003;20503;50.200;19.508;2022-07-15T03:46:21;7;7;6
34240;PMS7003;20503;50.200;19.508;2022-07-15T03:51:32;14;8;6
34240;PMS7003;20503;50.200;19.508;2022-07-15T03:56:42;14;10;7
34240;PMS7003;20503;50.200;19.508;2022-07-15T04:01:53;7;7;6
34240;PMS7003;20503;50.200;19.508;2022-07-15T04:07:04;8;8;6
34240;PMS7003;20503;50.200;19.508;2022-07-15T04:12:14;9;9;7
34240;PMS7003;20503;50.200;19.508;2022-07-15T04:17:25;9;5;4
34240;PMS7003;20503;50.200;19.508;2022-07-15T04:22:40;8;7;5
34240;PMS7003;20503;50.200;19.508;2022-07-15T04:27:47;6;6;3
34240;PMS7003;20503;50.200;19.508;2022-07-15T04:32:58;10;6;5
34240;PMS7003;20503;50.200;19.508;2022-07-15T04:38:09;11;9;6
34240;PMS7003;20503;50.200;19.508;2022-07-15T04:43:19;14;10;7
34240;PMS7003;20503;50.200;19.508;2022-07-15T04:48:30;7;6;3
34240;PMS7003;20503;50.200;19.508;2022-07-15T04:53:44;5;5;4
34240;PMS7003;20503;50.200;19.508;2022-07-15T04:58:51;15;6;4
34240;PMS7003;20503;50.200;19.508;2022-07-15T05:04:02;6;2;2
34240;PMS7003;20503;50.200;19.508;2022-07-15T05:09:13;4;3;2
34240;PMS7003;20503;50.200;19.508;2022-07-15T05:14:23;1;1;1
34240;PMS7003;20503;50.200;19.508;2022-07-15T05:19:35;7;3;2
34240;PMS7003;20503;50.200;19.508;2022-07-15T05:24:45;6;2;2
34240;PMS7003;20503;50.200;19.508;2022-07-15T05:29:56;2;2;1
34240;PMS7003;20503;50.200;19.508;2022-07-15T05:35:07;1;1;0
34240;PMS7003;20503;50.200;19.508;2022-07-15T05:40:17;2;2;2
34240;PMS7003;20503;50.200;19.508;2022-07-15T05:45:28;2;1;0
34240;PMS7003;20503;50.200;19.508;2022-07-15T05:50:39;4;1;1
34240;PMS7003;20503;50.200;19.508;2022-07-15T06:01:09;5;2;1
34240;PMS7003;20503;50.200;19.508;2022-07-15T06:06:11;1;1;0
34240;PMS7003;20503;50.200;19.508;2022-07-15T06:11:21;0;0;0
34240;PMS7003;20503;50.200;19.508;2022-07-15T06:16:32;0;0;0
34240;PMS7003;20503;50.200;19.508;2022-07-15T06:21:43;0;0;0
34240;PMS7003;20503;50.200;19.508;2022-07-15T06:26:54;0;0;0
34240;PMS7003;20503;50.200;19.508;2022-07-15T06:32:04;2;2;1
34240;PMS7003;20503;50.200;19.508;2022-07-15T06:37:15;0;0;0
34240;PMS7003;20503;50.200;19.508;2022-07-15T06:42:26;4;1;1
34240;PMS7003;20503;50.200;19.508;2022-07-15T06:47:41;1;1;1
34240;PMS7003;20503;50.200;19.508;2022-07-15T06:52:47;1;1;0
34240;PMS7003;20503;50.200;19.508;2022-07-15T06:57:58;1;1;1
34240;PMS7003;20503;50.200;19.508;2022-07-15T07:03:09;0;0;0
34240;PMS7003;20503;50.200;19.508;2022-07-15T07:08:19;0;0;0
34240;PMS7003;20503;50.200;19.508;2022-07-15T07:13:30;1;0;0
34240;PMS7003;20503;50.200;19.508;2022-07-15T07:18:41;0;0;0
34240;PMS7003;20503;50.200;19.508;2022-07-15T07:23:51;5;4;2
34240;PMS7003;20503;50.200;19.508;2022-07-15T07:29:02;0;0;0
34240;PMS7003;20503;50.200;19.508;2022-07-15T07:34:13;0;0;0
34240;PMS7003;20503;50.200;19.508;2022-07-15T07:39:24;0;0;0
34240;PMS7003;20503;50.200;19.508;2022-07-15T07:44:34;0;0;0
34240;PMS7003;20503;50.200;19.508;2022-07-15T07:49:45;0;0;0
34240;PMS7003;20503;50.200;19.508;2022-07-15T07:54:56;0;0;0
34240;PMS7003;20503;50.200;19.508;2022-07-15T08:00:07;0;0;0
34240;PMS7003;20503;50.200;19.508;2022-07-15T08:05:17;1;0;0
34240;PMS7003;20503;50.200;19.508;2022-07-15T08:10:28;1;1;0
34240;PMS7003;20503;50.200;19.508;2022-07-15T08:15:39;4;0;0
34240;PMS7003;20503;50.200;19.508;2022-07-15T08:20:49;1;1;1
34240;PMS7003;20503;50.200;19.508;2022-07-15T08:26:00;0;0;0
34240;PMS7003;20503;50.200;19.508;2022-07-15T08:31:11;4;3;2
34240;PMS7003;20503;50.200;19.508;2022-07-15T08:36:22;5;0;0
34240;PMS7003;20503;50.200;19.508;2022-07-15T08:41:35;0;0;0
34240;PMS7003;20503;50.200;19.508;2022-07-15T08:46:47;0;0;0
34240;PMS7003;20503;50.200;19.508;2022-07-15T08:51:54;0;0;0
34240;PMS7003;20503;50.200;19.508;2022-07-15T08:57:05;0;0;0
34240;PMS7003;20503;50.200;19.508;2022-07-15T09:02:18;0;0;0
34240;PMS7003;20503;50.200;19.508;2022-07-15T09:07:26;0;0;0
34240;PMS7003;20503;50.200;19.508;2022-07-15T09:12:39;0;0;0
34240;PMS7003;20503;50.200;19.508;2022-07-15T09:17:47;0;0;0
34240;PMS7003;20503;50.200;19.508;2022-07-15T09:22:58;0;0;0
34240;PMS7003;20503;50.200;19.508;2022-07-15T09:28:09;0;0;0
34240;PMS7003;20503;50.200;19.508;2022-07-15T09:33:21;0;0;0
34240;PMS7003;20503;50.200;19.508;2022-07-15T09:43:52;0;0;0
34240;PMS7003;20503;50.200;19.508;2022-07-15T09:49:00;0;0;0
34240;PMS7003;20503;50.200;19.508;2022-07-15T09:54:02;0;0;0
34240;PMS7003;20503;50.200;19.508;2022-07-15T09:59:14;2;1;1
34240;PMS7003;20503;50.200;19.508;2022-07-15T10:04:25;0;0;0
34240;PMS7003;20503;50.200;19.508;2022-07-15T10:09:35;4;0;0
34240;PMS7003;20503;50.200;19.508;2022-07-15T10:14:51;0;0;0
34240;PMS7003;20503;50.200;19.508;2022-07-15T10:30:25;0;0;0
34240;PMS7003;20503;50.200;19.508;2022-07-15T10:51:11;3;0;0
34240;PMS7003;20503;50.200;19.508;2022-07-15T11:01:32;0;0;0
34240;PMS7003;20503;50.200;19.508;2022-07-15T11:06:33;0;0;0
34240;PMS7003;20503;50.200;19.508;2022-07-15T11:11:45;0;0;0
34240;PMS7003;20503;50.200;19.508;2022-07-15T11:16:55;0;0;0
34240;PMS7003;20503;50.200;19.508;2022-07-15T11:22:09;0;0;0
34240;PMS7003;20503;50.200;19.508;2022-07-15T11:27:16;0;0;0
34240;PMS7003;20503;50.200;19.508;2022-07-15T11:32:27;0;0;0
34240;PMS7003;20503;50.200;19.508;2022-07-15T11:37:38;0;0;0
34240;PMS7003;20503;50.200;19.508;2022-07-15T11:42:48;2;0;0
34240;PMS7003;20503;50.200;19.508;2022-07-15T11:48:01;1;0;0
34240;PMS7003;20503;50.200;19.508;2022-07-15T11:53:13;0;0;0
34240;PMS7003;20503;50.200;19.508;2022-07-15T12:03:34;7;2;1
34240;PMS7003;20503;50.200;19.508;2022-07-15T12:08:44;0;0;0
34240;PMS7003;20503;50.200;19.508;2022-07-15T12:19:09;0;0;0
34240;PMS7003;20503;50.200;19.508;2022-07-15T12:24:16;0;0;0
34240;PMS7003;20503;50.200;19.508;2022-07-15T12:29:25;2;0;0
34240;PMS7003;20503;50.200;19.508;2022-07-15T12:50:13;0;0;0
34240;PMS7003;20503;50.200;19.508;2022-07-15T12:55:19;0;0;0
34240;PMS7003;20503;50.200;19.508;2022-07-15T13:00:29;0;0;0
34240;PMS7003;20503;50.200;19.508;2022-07-15T13:05:40;0;0;0
34240;PMS7003;20503;50.200;19.508;2022-07-15T13:10:52;0;0;0
34240;PMS7003;20503;50.200;19.508;2022-07-15T13:16:03;0;0;0
34240;PMS7003;20503;50.200;19.508;2022-07-15T13:21:11;0;0;0
34240;PMS7003;20503;50.200;19.508;2022-07-15T13:26:22;0;0;0
34240;PMS7003;20503;50.200;19.508;2022-07-15T13:31:33;1;1;1
34240;PMS7003;20503;50.200;19.508;2022-07-15T13:36:43;0;0;0
34240;PMS7003;20503;50.200;19.508;2022-07-15T13:41:54;0;0;0
34240;PMS7003;20503;50.200;19.508;2022-07-15T13:47:05;0;0;0
34240;PMS7003;20503;50.200;19.508;2022-07-15T13:52:16;0;0;0
34240;PMS7003;20503;50.200;19.508;2022-07-15T13:57:26;1;1;1
34240;PMS7003;20503;50.200;19.508;2022-07-15T14:02:37;1;1;1
34240;PMS7003;20503;50.200;19.508;2022-07-15T14:07:48;0;0;0
34240;PMS7003;20503;50.200;19.508;2022-07-15T14:12:58;0;0;0
34240;PMS7003;20503;50.200;19.508;2022-07-15T14:18:09;0;0;0
34240;PMS7003;20503;50.200;19.508;2022-07-15T14:23:20;0;0;0
34240;PMS7003;20503;50.200;19.508;2022-07-15T14:28:31;1;1;0
34240;PMS7003;20503;50.200;19.508;2022-07-15T14:33:42;0;0;0
34240;PMS7003;20503;50.200;19.508;2022-07-15T14:38:52;1;0;0
34240;PMS7003;20503;50.200;19.508;2022-07-15T14:44:03;1;0;0
34240;PMS7003;20503;50.200;19.508;2022-07-15T14:49:14;0;0;0
34240;PMS7003;20503;50.200;19.508;2022-07-15T14:54:24;2;0;0
34240;PMS7003;20503;50.200;19.508;2022-07-15T14:59:35;0;0;0
34240;PMS7003;20503;50.200;19.508;2022-07-15T15:04:46;0;0;0
34240;PMS7003;20503;50.200;19.508;2022-07-15T15:09:56;0;0;0
34240;PMS7003;20503;50.200;19.508;2022-07-15T15:15:07;0;0;0
34240;PMS7003;20503;50.200;19.508;2022-07-15T15:20:18;0;0;0
34240;PMS7003;20503;50.200;19.508;2022-07-15T15:25:28;0;0;0
34240;PMS7003;20503;50.200;19.508;2022-07-15T15:30:42;0;0;0
34240;PMS7003;20503;50.200;19.508;2022-07-15T15:35:50;0;0;0
34240;PMS7003;20503;50.200;19.508;2022-07-15T15:41:01;0;0;0
34240;PMS7003;20503;50.200;19.508;2022-07-15T15:46:11;0;0;0
34240;PMS7003;20503;50.200;19.508;2022-07-15T15:51:22;0;0;0
34240;PMS7003;20503;50.200;19.508;2022-07-15T15:56:33;0;0;0
34240;PMS7003;20503;50.200;19.508;2022-07-15T16:01:43;0;0;0
34240;PMS7003;20503;50.200;19.508;2022-07-15T16:06:54;0;0;0
34240;PMS7003;20503;50.200;19.508;2022-07-15T16:12:05;0;0;0
34240;PMS7003;20503;50.200;19.508;2022-07-15T16:17:16;0;0;0
34240;PMS7003;20503;50.200;19.508;2022-07-15T16:22:26;0;0;0
34240;PMS7003;20503;50.200;19.508;2022-07-15T16:27:40;0;0;0
34240;PMS7003;20503;50.200;19.508;2022-07-15T16:32:48;0;0;0
34240;PMS7003;20503;50.200;19.508;2022-07-15T16:37:59;0;0;0
34240;PMS7003;20503;50.200;19.508;2022-07-15T16:43:09;0;0;0
34240;PMS7003;20503;50.200;19.508;2022-07-15T16:48:20;0;0;0
34240;PMS7003;20503;50.200;19.508;2022-07-15T16:53:31;0;0;0
34240;PMS7003;20503;50.200;19.508;2022-07-15T16:58:45;0;0;0
34240;PMS7003;20503;50.200;19.508;2022-07-15T17:03:52;0;0;0
34240;PMS7003;20503;50.200;19.508;2022-07-15T17:09:03;0;0;0
34240;PMS7003;20503;50.200;19.508;2022-07-15T17:14:14;0;0;0
34240;PMS7003;20503;50.200;19.508;2022-07-15T17:19:24;0;0;0
34240;PMS7003;20503;50.200;19.508;2022-07-15T17:24:35;0;0;0
34240;PMS7003;20503;50.200;19.508;2022-07-15T17:29:46;0;0;0
34240;PMS7003;20503;50.200;19.508;2022-07-15T17:34:56;0;0;0
34240;PMS7003;20503;50.200;19.508;2022-07-15T17:40:07;0;0;0
34240;PMS7003;20503;50.200;19.508;2022-07-15T17:45:18;0;0;0
34240;PMS7003;20503;50.200;19.508;2022-07-15T17:50:29;0;0;0
34240;PMS7003;20503;50.200;19.508;2022-07-15T17:55:40;0;0;0
34240;PMS7003;20503;50.200;19.508;2022-07-15T18:00:50;0;0;0
34240;PMS7003;20503;50.200;19.508;2022-07-15T18:06:01;0;0;0
34240;PMS7003;20503;50.200;19.508;2022-07-15T18:11:11;0;0;0
34240;PMS7003;20503;50.200;19.508;2022-07-15T18:16:22;0;0;0
34240;PMS7003;20503;50.200;19.508;2022-07-15T18:21:33;0;0;0
34240;PMS7003;20503;50.200;19.508;2022-07-15T18:26:44;0;0;0
34240;PMS7003;20503;50.200;19.508;2022-07-15T18:31:54;0;0;0
34240;PMS7003;20503;50.200;19.508;2022-07-15T18:37:05;0;0;0
34240;PMS7003;20503;50.200;19.508;2022-07-15T18:42:16;0;0;0
34240;PMS7003;20503;50.200;19.508;2022-07-15T18:47:27;0;0;0
34240;PMS7003;20503;50.200;19.508;2022-07-15T18:52:37;1;0;0
34240;PMS7003;20503;50.200;19.508;2022-07-15T18:57:48;0;0;0
34240;PMS7003;20503;50.200;19.508;2022-07-15T19:02:59;0;0;0
34240;PMS7003;20503;50.200;19.508;2022-07-15T19:08:10;7;7;6
34240;PMS7003;20503;50.200;19.508;2022-07-15T19:13:21;8;6;5
34240;PMS7003;20503;50.200;19.508;2022-07-15T19:18:31;8;4;3
34240;PMS7003;20503;50.200;19.508;2022-07-15T19:23:42;17;11;8
34240;PMS7003;20503;50.200;19.508;2022-07-15T19:28:53;8;6;4
34240;PMS7003;20503;50.200;19.508;2022-07-15T19:34:03;12;3;2
34240;PMS7003;20503;50.200;19.508;2022-07-15T19:39:14;4;2;1
34240;PMS7003;20503;50.200;19.508;2022-07-15T19:44:26;2;2;1
34240;PMS7003;20503;50.200;19.508;2022-07-15T19:49:35;2;2;1
34240;PMS7003;20503;50.200;19.508;2022-07-15T19:54:52;2;2;1
34240;PMS7003;20503;50.200;19.508;2022-07-15T20:00:01;3;3;2
34240;PMS7003;20503;50.200;19.508;2022-07-15T20:05:18;2;0;0
34240;PMS7003;20503;50.200;19.508;2022-07-15T20:10:21;53;34;20
34240;PMS7003;20503;50.200;19.508;2022-07-15T20:15:48;13;4;2
34240;PMS7003;20503;50.200;19.508;2022-07-15T20:20:59;22;6;4
34240;PMS7003;20503;50.200;19.508;2022-07-15T20:26:10;6;3;2
34240;PMS7003;20503;50.200;19.508;2022-07-15T20:31:21;9;7;5
34240;PMS7003;20503;50.200;19.508;2022-07-15T20:36:31;5;4;2
34240;PMS7003;20503;50.200;19.508;2022-07-15T20:41:42;9;7;4
34240;PMS7003;20503;50.200;19.508;2022-07-15T20:46:53;8;4;1
34240;PMS7003;20503;50.200;19.508;2022-07-15T20:52:04;4;2;1
34240;PMS7003;20503;50.200;19.508;2022-07-15T20:57:14;12;6;5
34240;PMS7003;20503;50.200;19.508;2022-07-15T21:02:25;20;9;4
34240;PMS7003;20503;50.200;19.508;2022-07-15T21:07:36;13;6;4
34240;PMS7003;20503;50.200;19.508;2022-07-15T21:12:47;9;6;4
34240;PMS7003;20503;50.200;19.508;2022-07-15T21:17:57;4;2;1
34240;PMS7003;20503;50.200;19.508;2022-07-15T21:23:08;5;3;2
34240;PMS7003;20503;50.200;19.508;2022-07-15T21:28:19;3;3;2
34240;PMS7003;20503;50.200;19.508;2022-07-15T21:33:30;3;3;2
34240;PMS7003;20503;50.200;19.508;2022-07-15T21:38:40;5;5;3
34240;PMS7003;20503;50.200;19.508;2022-07-15T21:43:51;3;2;2
34240;PMS7003;20503;50.200;19.508;2022-07-15T21:49:02;2;1;1
34240;PMS7003;20503;50.200;19.508;2022-07-15T21:54:13;5;0;0
34240;PMS7003;20503;50.200;19.508;2022-07-15T21:59:23;0;0;0
34240;PMS7003;20503;50.200;19.508;2022-07-15T22:04:34;3;2;2
34240;PMS7003;20503;50.200;19.508;2022-07-15T22:09:45;1;0;0
34240;PMS7003;20503;50.200;19.508;2022-07-15T22:14:56;1;1;0
34240;PMS7003;20503;50.200;19.508;2022-07-15T22:20:07;1;0;0
34240;PMS7003;20503;50.200;19.508;2022-07-15T22:25:17;0;0;0
34240;PMS7003;20503;50.200;19.508;2022-07-15T22:30:28;0;0;0
34240;PMS7003;20503;50.200;19.508;2022-07-15T22:35:39;0;0;0
34240;PMS7003;20503;50.200;19.508;2022-07-15T22:40:50;2;0;0
34240;PMS7003;20503;50.200;19.508;2022-07-15T22:46:00;0;0;0
34240;PMS7003;20503;50.200;19.508;2022-07-15T22:51:11;1;1;0
34240;PMS7003;20503;50.200;19.508;2022-07-15T22:56:22;0;0;0
34240;PMS7003;20503;50.200;19.508;2022-07-15T23:01:32;2;0;0
34240;PMS7003;20503;50.200;19.508;2022-07-15T23:06:43;2;0;0
34240;PMS7003;20503;50.200;19.508;2022-07-15T23:11:54;0;0;0
34240;PMS7003;20503;50.200;19.508;2022-07-15T23:17:05;2;0;0
34240;PMS7003;20503;50.200;19.508;2022-07-15T23:22:16;0;0;0
34240;PMS7003;20503;50.200;19.508;2022-07-15T23:27:26;1;0;0
34240;PMS7003;20503;50.200;19.508;2022-07-15T23:32:37;0;0;0
34240;PMS7003;20503;50.200;19.508;2022-07-15T23:37:48;1;0;0
34240;PMS7003;20503;50.200;19.508;2022-07-15T23:42:58;4;0;0
34240;PMS7003;20503;50.200;19.508;2022-07-15T23:48:09;0;0;0
34240;PMS7003;20503;50.200;19.508;2022-07-15T23:53:20;0;0;0
34240;PMS7003;20503;50.200;19.508;2022-07-15T23:58:31;0;0;0
